Time;durP1;ratioP1;P1;durP2;ratioP2;P2;SDS_P1;SDS_P2;PMS_P1;PMS_P2;Temp;Humidity;BMP_temperature;BMP_pressure;BME280_temperature;BME280_humidity;BME280_pressure;Samples;Min_cycle;Max_cycle;Signal;HPM_P1;HPM_P2
2021/07/16 00:00:15;;;;;;;4.63;2.08;;;;;;;;;;5095384;28;20354;-58
2021/07/16 00:02:42;;;;;;;3.92;3.25;;;;;;;;;;5094892;28;20031;-57
2021/07/16 00:05:08;;;;;;;4.68;3.20;;;;;;;;;;5094473;28;20020;-58
2021/07/16 00:07:34;;;;;;;4.00;3.15;;;;;;;;;;5094455;28;20024;-58
2021/07/16 00:10:00;;;;;;;4.13;3.17;;;;;;;;;;5094240;28;20091;-57
2021/07/16 00:12:26;;;;;;;3.65;3.10;;;;;;;;;;5094815;28;20112;-58
2021/07/16 00:14:52;;;;;;;3.97;3.05;;;;;;;;;;5094666;28;20067;-58
2021/07/16 00:17:18;;;;;;;3.17;2.70;;;;;;;;;;5094325;28;20346;-58
2021/07/16 00:19:44;;;;;;;3.38;3.08;;;;;;;;;;5093278;28;20130;-58
2021/07/16 00:22:10;;;;;;;3.92;3.53;;;;;;;;;;5094206;28;20024;-58
2021/07/16 00:24:36;;;;;;;3.42;3.13;;;;;;;;;;5094473;28;20035;-58
2021/07/16 00:27:04;;;;;;;4.85;3.90;;;;;;;;;;5094683;28;20020;-58
2021/07/16 00:29:30;;;;;;;4.20;3.42;;;;;;;;;;5094562;28;20039;-58
2021/07/16 00:31:56;;;;;;;3.78;3.45;;;;;;;;;;5094213;28;20099;-58
2021/07/16 00:34:22;;;;;;;4.78;3.53;;;;;;;;;;5094344;28;20028;-58
2021/07/16 00:36:48;;;;;;;4.45;3.95;;;;;;;;;;5093833;28;20115;-58
2021/07/16 00:39:14;;;;;;;4.72;4.07;;;;;;;;;;5093692;28;20374;-58
2021/07/16 00:41:40;;;;;;;4.20;3.78;;;;;;;;;;5094329;28;20028;-58
2021/07/16 00:44:06;;;;;;;5.93;4.90;;;;;;;;;;5092646;28;20111;-58
2021/07/16 00:46:36;;;;;;;4.80;4.03;;;;;;;;;;5093963;28;20028;-58
2021/07/16 00:49:02;;;;;;;5.00;4.30;;;;;;;;;;5093848;28;20020;-57
2021/07/16 00:51:30;;;;;;;8.73;4.68;;;;;;;;;;5093698;28;20522;-58
2021/07/16 00:53:56;;;;;;;9.38;6.07;;;;;;;;;;5093555;28;20450;-58
2021/07/16 00:56:22;;;;;;;8.30;6.75;;;;;;;;;;5093832;28;20121;-58
2021/07/16 00:58:49;;;;;;;8.57;7.72;;;;;;;;;;5093758;28;20119;-58
2021/07/16 01:01:15;;;;;;;8.45;7.65;;;;;;;;;;5096542;28;20035;-58
2021/07/16 01:03:41;;;;;;;7.72;6.70;;;;;;;;;;5097676;28;20515;-58
2021/07/16 01:06:07;;;;;;;11.02;9.02;;;;;;;;;;5097928;28;20481;-58
2021/07/16 01:08:33;;;;;;;9.60;8.15;;;;;;;;;;5097726;28;20040;-58
2021/07/16 01:10:59;;;;;;;9.55;8.18;;;;;;;;;;5097602;28;20047;-58
2021/07/16 01:13:26;;;;;;;9.93;8.90;;;;;;;;;;5097825;28;20027;-58
2021/07/16 01:15:54;;;;;;;10.07;8.40;;;;;;;;;;5097735;28;20024;-58
2021/07/16 01:18:20;;;;;;;10.30;9.05;;;;;;;;;;5096812;28;20393;-58
2021/07/16 01:20:46;;;;;;;9.63;8.18;;;;;;;;;;5097726;28;20362;-58
2021/07/16 01:23:24;;;;;;;9.38;8.23;;;;;;;;;;5097927;28;20508;-58
2021/07/16 01:25:54;;;;;;;9.40;8.45;;;;;;;;;;5098186;28;20028;-58
2021/07/16 01:28:23;;;;;;;10.35;8.52;;;;;;;;;;5096145;28;20067;-58
2021/07/16 01:30:53;;;;;;;9.27;8.00;;;;;;;;;;5097527;28;20028;-56
2021/07/16 01:33:20;;;;;;;10.77;8.25;;;;;;;;;;5098283;28;20056;-58
2021/07/16 01:35:46;;;;;;;9.07;7.78;;;;;;;;;;5097693;28;20027;-58
2021/07/16 01:38:12;;;;;;;8.32;7.35;;;;;;;;;;5097281;28;20016;-58
2021/07/16 01:40:39;;;;;;;7.93;7.13;;;;;;;;;;5097329;28;20027;-58
2021/07/16 01:43:06;;;;;;;8.73;6.57;;;;;;;;;;5097839;28;20420;-58
2021/07/16 01:45:38;;;;;;;7.93;7.15;;;;;;;;;;5097708;28;20023;-58
2021/07/16 01:48:05;;;;;;;7.90;7.13;;;;;;;;;;5097071;28;20454;-58
2021/07/16 01:50:32;;;;;;;8.50;6.85;;;;;;;;;;5097402;28;20392;-58
2021/07/16 01:52:58;;;;;;;7.78;7.05;;;;;;;;;;5097749;28;20099;-58
2021/07/16 01:55:25;;;;;;;8.90;7.38;;;;;;;;;;5097094;28;20370;-58
2021/07/16 01:57:55;;;;;;;8.32;7.53;;;;;;;;;;5096951;28;20111;-58
2021/07/16 02:00:26;;;;;;;8.93;7.35;;;;;;;;;;5097480;28;20029;-58
2021/07/16 02:02:53;;;;;;;7.30;6.13;;;;;;;;;;5097276;28;20028;-58
2021/07/16 02:05:19;;;;;;;7.95;6.88;;;;;;;;;;5096820;28;20017;-58
2021/07/16 02:07:46;;;;;;;7.95;7.15;;;;;;;;;;5096658;28;20020;-58
2021/07/16 02:10:12;;;;;;;6.30;5.70;;;;;;;;;;5096410;28;20024;-58
2021/07/16 02:12:38;;;;;;;8.98;6.20;;;;;;;;;;5096734;28;20129;-58
2021/07/16 02:15:12;;;;;;;6.82;6.10;;;;;;;;;;5096149;28;20032;-58
2021/07/16 02:17:40;;;;;;;7.80;7.00;;;;;;;;;;5096593;28;20471;-58
2021/07/16 02:20:18;;;;;;;6.72;6.07;;;;;;;;;;5096810;28;20028;-58
2021/07/16 02:22:44;;;;;;;8.13;6.45;;;;;;;;;;5097324;28;20046;-58
2021/07/16 02:25:10;;;;;;;7.65;6.78;;;;;;;;;;5096478;28;20024;-58
2021/07/16 02:27:36;;;;;;;6.95;6.25;;;;;;;;;;5095166;28;20047;-58
2021/07/16 02:30:04;;;;;;;10.43;6.90;;;;;;;;;;5096355;28;20024;-57
2021/07/16 02:32:30;;;;;;;7.72;6.93;;;;;;;;;;5096687;28;20032;-58
2021/07/16 02:34:56;;;;;;;6.70;6.07;;;;;;;;;;5096242;28;20035;-57
2021/07/16 02:37:22;;;;;;;8.30;5.80;;;;;;;;;;5096567;28;20053;-58
2021/07/16 02:39:48;;;;;;;9.02;6.63;;;;;;;;;;5096172;28;20069;-58
2021/07/16 02:42:18;;;;;;;7.00;5.80;;;;;;;;;;5096464;28;20016;-58
2021/07/16 02:44:45;;;;;;;12.57;7.15;;;;;;;;;;5096329;28;20027;-58
2021/07/16 02:47:11;;;;;;;6.78;6.05;;;;;;;;;;5094529;28;20450;-58
2021/07/16 02:49:37;;;;;;;6.18;5.57;;;;;;;;;;5095515;28;20032;-58
2021/07/16 02:52:03;;;;;;;7.15;6.43;;;;;;;;;;5096014;28;20055;-58
2021/07/16 02:54:29;;;;;;;7.47;6.57;;;;;;;;;;5094622;28;20024;-58
2021/07/16 02:56:55;;;;;;;8.18;7.32;;;;;;;;;;5095580;28;20024;-58
2021/07/16 02:59:21;;;;;;;8.70;7.07;;;;;;;;;;5094933;28;20085;-58
2021/07/16 03:01:57;;;;;;;7.72;6.93;;;;;;;;;;5095995;28;20027;-57
2021/07/16 03:04:23;;;;;;;6.47;5.50;;;;;;;;;;5095691;28;20028;-58
2021/07/16 03:06:49;;;;;;;6.70;5.70;;;;;;;;;;5095955;28;20024;-58
2021/07/16 03:09:16;;;;;;;7.63;6.00;;;;;;;;;;5095684;28;20089;-58
2021/07/16 03:11:42;;;;;;;7.22;5.50;;;;;;;;;;5095708;28;20044;-58
2021/07/16 03:14:08;;;;;;;6.25;5.65;;;;;;;;;;5095590;28;20028;-58
2021/07/16 03:16:36;;;;;;;6.28;5.38;;;;;;;;;;5095766;28;20024;-58
2021/07/16 03:19:03;;;;;;;5.15;4.63;;;;;;;;;;5095473;28;20036;-58
2021/07/16 03:21:29;;;;;;;7.07;5.93;;;;;;;;;;5095409;28;20457;-58
2021/07/16 03:23:55;;;;;;;5.65;4.88;;;;;;;;;;5094523;28;20074;-58
2021/07/16 03:26:21;;;;;;;7.10;5.50;;;;;;;;;;5095572;28;20035;-58
2021/07/16 03:28:47;;;;;;;4.72;4.15;;;;;;;;;;5095730;28;20036;-58
2021/07/16 03:31:13;;;;;;;5.65;4.88;;;;;;;;;;5095795;28;20024;-58
2021/07/16 03:33:41;;;;;;;4.28;3.78;;;;;;;;;;5095222;28;20024;-58
2021/07/16 03:36:08;;;;;;;4.57;4.07;;;;;;;;;;5095082;28;20031;-58
2021/07/16 03:38:34;;;;;;;5.22;4.15;;;;;;;;;;5095166;28;20043;-58
2021/07/16 03:41:06;;;;;;;5.10;4.60;;;;;;;;;;5094974;28;20020;-58
2021/07/16 03:43:32;;;;;;;5.70;5.20;;;;;;;;;;5095005;28;20035;-58
2021/07/16 03:45:58;;;;;;;5.97;5.38;;;;;;;;;;5094586;28;20028;-58
2021/07/16 03:48:25;;;;;;;6.20;5.45;;;;;;;;;;5093781;28;20075;-58
2021/07/16 03:50:51;;;;;;;7.10;5.03;;;;;;;;;;5094858;28;20027;-58
2021/07/16 03:53:17;;;;;;;5.28;4.78;;;;;;;;;;5095479;28;20027;-58
2021/07/16 03:55:43;;;;;;;5.50;4.90;;;;;;;;;;5094733;28;20373;-58
2021/07/16 03:58:09;;;;;;;6.00;5.40;;;;;;;;;;5095349;28;20028;-58
2021/07/16 04:00:35;;;;;;;5.85;5.25;;;;;;;;;;5094656;28;20449;-58
2021/07/16 04:03:02;;;;;;;7.32;5.68;;;;;;;;;;5094718;28;20119;-58
2021/07/16 04:05:30;;;;;;;6.57;5.20;;;;;;;;;;5094660;28;20161;-58
2021/07/16 04:08:06;;;;;;;6.82;5.07;;;;;;;;;;5094671;28;20607;-58
2021/07/16 04:10:33;;;;;;;6.75;5.07;;;;;;;;;;5094545;28;20052;-58
2021/07/16 04:13:06;;;;;;;11.55;5.45;;;;;;;;;;5094499;28;20111;-58
2021/07/16 04:15:33;;;;;;;5.03;4.28;;;;;;;;;;5095363;28;20464;-58
2021/07/16 04:17:59;;;;;;;5.53;4.85;;;;;;;;;;5094463;28;20380;-58
2021/07/16 04:20:27;;;;;;;5.22;4.60;;;;;;;;;;5094394;28;20024;-58
2021/07/16 04:22:53;;;;;;;6.07;5.13;;;;;;;;;;5094690;28;20024;-58
2021/07/16 04:25:19;;;;;;;5.53;4.80;;;;;;;;;;5094528;28;20031;-58
2021/07/16 04:27:46;;;;;;;5.72;5.13;;;;;;;;;;5094183;28;20031;-58
2021/07/16 04:30:13;;;;;;;6.75;5.53;;;;;;;;;;5094025;28;20036;-58
2021/07/16 04:32:39;;;;;;;7.00;5.55;;;;;;;;;;5094223;28;20028;-58
2021/07/16 04:35:06;;;;;;;6.75;5.60;;;;;;;;;;5094130;28;20052;-58
2021/07/16 04:37:32;;;;;;;10.55;5.65;;;;;;;;;;5094026;28;20020;-57
2021/07/16 04:39:58;;;;;;;5.70;5.10;;;;;;;;;;5094008;28;20031;-58
2021/07/16 04:42:24;;;;;;;5.70;5.20;;;;;;;;;;5094121;28;20028;-58
2021/07/16 04:44:50;;;;;;;5.93;5.20;;;;;;;;;;5093931;28;20031;-58
2021/07/16 04:47:16;;;;;;;6.53;4.85;;;;;;;;;;5094010;28;20051;-57
2021/07/16 04:49:42;;;;;;;9.00;5.22;;;;;;;;;;5094378;28;20028;-58
2021/07/16 04:52:08;;;;;;;10.80;5.13;;;;;;;;;;5094230;28;20036;-58
2021/07/16 04:54:34;;;;;;;5.10;4.60;;;;;;;;;;5093848;28;20028;-58
2021/07/16 04:57:00;;;;;;;5.88;4.25;;;;;;;;;;5094281;28;20028;-58
2021/07/16 04:59:26;;;;;;;8.70;5.00;;;;;;;;;;5094543;28;20390;-58
2021/07/16 05:01:52;;;;;;;5.90;4.43;;;;;;;;;;5093863;28;20066;-58
2021/07/16 05:04:19;;;;;;;4.15;3.75;;;;;;;;;;5093711;28;20028;-58
2021/07/16 05:06:47;;;;;;;6.00;5.38;;;;;;;;;;5093674;28;20114;-58
2021/07/16 05:09:16;;;;;;;6.60;5.68;;;;;;;;;;5093890;28;20032;-58
2021/07/16 05:11:43;;;;;;;6.63;5.57;;;;;;;;;;5093715;28;20532;-57
2021/07/16 05:14:09;;;;;;;9.05;8.15;;;;;;;;;;5093721;28;20420;-58
2021/07/16 05:16:35;;;;;;;11.05;8.27;;;;;;;;;;5093979;28;20016;-58
2021/07/16 05:19:01;;;;;;;11.80;9.13;;;;;;;;;;5094417;28;20049;-58
2021/07/16 05:21:27;;;;;;;10.68;9.52;;;;;;;;;;5094527;28;20404;-58
2021/07/16 05:23:53;;;;;;;10.10;8.63;;;;;;;;;;5093611;28;20459;-58
2021/07/16 05:26:19;;;;;;;12.07;10.68;;;;;;;;;;5093530;28;20063;-58
2021/07/16 05:28:48;;;;;;;10.90;9.68;;;;;;;;;;5093073;28;20506;-58
2021/07/16 05:31:14;;;;;;;12.98;10.10;;;;;;;;;;5094142;28;20024;-58
2021/07/16 05:33:40;;;;;;;11.98;9.60;;;;;;;;;;5093519;28;20032;-59
2021/07/16 05:36:09;;;;;;;12.35;11.05;;;;;;;;;;5093485;28;20031;-59
2021/07/16 05:38:37;;;;;;;11.18;9.98;;;;;;;;;;5093407;28;20056;-58
2021/07/16 05:41:03;;;;;;;13.45;9.90;;;;;;;;;;5093978;28;20104;-58
2021/07/16 05:43:29;;;;;;;14.02;11.07;;;;;;;;;;5093999;28;20095;-58
2021/07/16 05:45:55;;;;;;;12.50;11.20;;;;;;;;;;5093393;28;20025;-58
2021/07/16 05:48:21;;;;;;;16.42;12.43;;;;;;;;;;5097131;28;20028;-58
2021/07/16 05:50:48;;;;;;;14.88;11.10;;;;;;;;;;5097148;28;20060;-58
2021/07/16 05:53:14;;;;;;;15.25;12.32;;;;;;;;;;5097752;28;20020;-59
2021/07/16 05:55:41;;;;;;;14.57;11.48;;;;;;;;;;5097412;28;20030;-58
2021/07/16 05:58:07;;;;;;;13.80;12.23;;;;;;;;;;5097001;28;20024;-59
2021/07/16 06:00:34;;;;;;;17.20;13.82;;;;;;;;;;5097157;28;20373;-59
2021/07/16 06:03:00;;;;;;;14.93;13.35;;;;;;;;;;5097494;28;20024;-59
2021/07/16 06:05:26;;;;;;;14.20;12.45;;;;;;;;;;5096945;28;20145;-59
2021/07/16 06:07:52;;;;;;;16.75;12.98;;;;;;;;;;5097125;28;20054;-58
2021/07/16 06:10:19;;;;;;;14.85;13.35;;;;;;;;;;5096590;28;20048;-58
2021/07/16 06:12:45;;;;;;;15.38;12.38;;;;;;;;;;5097506;28;20362;-59
2021/07/16 06:15:11;;;;;;;12.48;11.18;;;;;;;;;;5096631;28;20027;-59
2021/07/16 06:17:37;;;;;;;14.10;12.73;;;;;;;;;;5096405;28;20462;-58
2021/07/16 06:20:05;;;;;;;15.50;13.20;;;;;;;;;;5096898;28;20365;-58
2021/07/16 06:22:31;;;;;;;13.43;11.13;;;;;;;;;;5096345;28;20494;-59
2021/07/16 06:24:57;;;;;;;12.57;11.32;;;;;;;;;;5097289;28;20385;-58
2021/07/16 06:27:23;;;;;;;13.20;11.40;;;;;;;;;;5096391;28;20496;-59
2021/07/16 06:29:49;;;;;;;12.27;11.05;;;;;;;;;;5096191;28;20032;-59
2021/07/16 06:32:15;;;;;;;15.32;13.25;;;;;;;;;;5096796;28;20032;-58
2021/07/16 06:34:41;;;;;;;14.63;12.75;;;;;;;;;;5095223;28;20457;-59
2021/07/16 06:37:07;;;;;;;14.73;12.57;;;;;;;;;;5096509;28;20028;-59
2021/07/16 06:39:33;;;;;;;14.32;12.15;;;;;;;;;;5095965;28;20035;-59
2021/07/16 06:41:59;;;;;;;13.65;12.25;;;;;;;;;;5096786;28;20404;-59
2021/07/16 06:44:25;;;;;;;15.88;12.40;;;;;;;;;;5096711;28;20105;-59
2021/07/16 06:46:52;;;;;;;13.90;12.43;;;;;;;;;;5096648;28;20016;-59
2021/07/16 06:49:20;;;;;;;15.20;12.73;;;;;;;;;;5095674;28;20036;-59
2021/07/16 06:51:46;;;;;;;15.88;12.75;;;;;;;;;;5096307;28;20024;-59
2021/07/16 06:54:12;;;;;;;13.07;11.80;;;;;;;;;;5096026;28;20028;-59
2021/07/16 06:56:38;;;;;;;12.88;10.98;;;;;;;;;;5096489;28;20028;-59
2021/07/16 06:59:06;;;;;;;14.18;11.57;;;;;;;;;;5094804;28;20032;-59
2021/07/16 07:01:32;;;;;;;13.07;11.77;;;;;;;;;;5095798;28;20039;-59
2021/07/16 07:04:01;;;;;;;11.48;10.38;;;;;;;;;;5095788;28;20024;-59
2021/07/16 07:06:27;;;;;;;11.10;9.43;;;;;;;;;;5095770;28;20026;-58
2021/07/16 07:08:53;;;;;;;9.98;8.50;;;;;;;;;;5095314;28;20024;-58
2021/07/16 07:11:19;;;;;;;10.77;9.27;;;;;;;;;;5095804;28;20055;-59
2021/07/16 07:13:45;;;;;;;12.48;10.13;;;;;;;;;;5095618;28;20028;-58
2021/07/16 07:16:15;;;;;;;12.00;9.90;;;;;;;;;;5095257;28;20453;-59
2021/07/16 07:18:41;;;;;;;11.40;9.80;;;;;;;;;;5096321;28;20408;-59
2021/07/16 07:21:08;;;;;;;10.13;9.13;;;;;;;;;;5096029;28;20530;-59
2021/07/16 07:23:34;;;;;;;10.13;9.02;;;;;;;;;;5095316;28;20020;-59
2021/07/16 07:26:00;;;;;;;10.90;9.75;;;;;;;;;;5095690;28;20042;-59
2021/07/16 07:28:28;;;;;;;10.20;9.30;;;;;;;;;;5095308;28;20016;-58
2021/07/16 07:30:54;;;;;;;10.30;9.40;;;;;;;;;;5095599;28;20024;-59
2021/07/16 07:33:20;;;;;;;11.27;9.80;;;;;;;;;;5095294;28;20020;-59
2021/07/16 07:35:46;;;;;;;9.55;8.70;;;;;;;;;;5095965;28;20055;-58
2021/07/16 07:38:12;;;;;;;9.75;8.70;;;;;;;;;;5095139;28;20381;-59
2021/07/16 07:40:38;;;;;;;9.57;8.68;;;;;;;;;;5095304;28;20373;-59
2021/07/16 07:43:05;;;;;;;11.20;8.93;;;;;;;;;;5095369;28;20020;-59
2021/07/16 07:45:31;;;;;;;11.00;8.32;;;;;;;;;;5095310;28;20361;-59
2021/07/16 07:47:57;;;;;;;9.65;8.77;;;;;;;;;;5094982;28;20073;-59
2021/07/16 07:50:24;;;;;;;9.82;8.38;;;;;;;;;;5094605;28;20028;-59
2021/07/16 07:52:51;;;;;;;10.43;9.25;;;;;;;;;;5095153;28;20369;-58
2021/07/16 07:55:18;;;;;;;10.05;7.53;;;;;;;;;;5094740;28;20028;-59
2021/07/16 07:57:44;;;;;;;10.20;8.00;;;;;;;;;;5095157;28;20153;-59
2021/07/16 08:00:14;;;;;;;11.27;7.97;;;;;;;;;;5094582;28;20036;-59
2021/07/16 08:02:42;;;;;;;9.35;8.32;;;;;;;;;;5094281;28;20461;-58
2021/07/16 08:05:11;;;;;;;9.02;8.13;;;;;;;;;;5094534;28;20032;-58
2021/07/16 08:07:37;;;;;;;9.18;8.38;;;;;;;;;;5094110;28;20521;-58
2021/07/16 08:10:07;;;;;;;8.00;7.20;;;;;;;;;;5094097;28;20070;-59
2021/07/16 08:12:33;;;;;;;8.30;7.50;;;;;;;;;;5095249;28;20527;-59
2021/07/16 08:14:59;;;;;;;7.70;6.95;;;;;;;;;;5095046;28;20031;-59
2021/07/16 08:17:25;;;;;;;8.13;7.32;;;;;;;;;;5095292;28;20062;-59
2021/07/16 08:19:52;;;;;;;7.78;7.03;;;;;;;;;;5094324;28;20031;-58
2021/07/16 08:22:18;;;;;;;7.60;6.88;;;;;;;;;;5094352;28;20504;-59
2021/07/16 08:24:46;;;;;;;7.18;6.47;;;;;;;;;;5094921;28;20028;-59
2021/07/16 08:27:12;;;;;;;9.35;7.40;;;;;;;;;;5094363;28;20072;-59
2021/07/16 08:29:38;;;;;;;8.45;7.65;;;;;;;;;;5094094;28;20028;-58
2021/07/16 08:32:04;;;;;;;7.97;7.05;;;;;;;;;;5094517;28;20032;-59
2021/07/16 08:34:30;;;;;;;8.95;8.05;;;;;;;;;;5094157;28;20401;-59
2021/07/16 08:36:57;;;;;;;8.50;7.60;;;;;;;;;;5094452;28;20024;-59
2021/07/16 08:39:23;;;;;;;8.75;7.30;;;;;;;;;;5094662;28;20507;-59
2021/07/16 08:41:50;;;;;;;9.68;7.28;;;;;;;;;;5094378;28;20024;-59
2021/07/16 08:44:16;;;;;;;8.43;7.63;;;;;;;;;;5094023;28;20028;-59
2021/07/16 08:46:46;;;;;;;7.72;6.90;;;;;;;;;;5094241;28;20030;-59
2021/07/16 08:49:16;;;;;;;13.68;6.63;;;;;;;;;;5093944;28;20032;-59
2021/07/16 08:51:43;;;;;;;6.65;5.93;;;;;;;;;;5094259;28;20020;-59
2021/07/16 08:54:14;;;;;;;7.38;6.22;;;;;;;;;;5094103;28;20106;-59
2021/07/16 08:56:40;;;;;;;6.80;6.20;;;;;;;;;;5094435;28;20369;-59
2021/07/16 08:59:08;;;;;;;6.93;6.22;;;;;;;;;;5093862;28;20056;-59
2021/07/16 09:01:34;;;;;;;7.35;6.65;;;;;;;;;;5094203;28;20077;-58
2021/07/16 09:04:01;;;;;;;8.77;6.40;;;;;;;;;;5094032;28;20027;-59
2021/07/16 09:06:45;;;;;;;6.18;5.38;;;;;;;;;;5094184;28;20024;-59
2021/07/16 09:09:11;;;;;;;5.75;4.32;;;;;;;;;;5093554;28;20028;-59
2021/07/16 09:11:38;;;;;;;7.32;5.82;;;;;;;;;;5093400;28;20050;-59
2021/07/16 09:14:04;;;;;;;5.70;4.88;;;;;;;;;;5093695;28;20036;-59
2021/07/16 09:16:33;;;;;;;6.13;5.53;;;;;;;;;;5093517;28;20031;-59
2021/07/16 09:18:59;;;;;;;5.45;4.95;;;;;;;;;;5093541;28;20036;-59
2021/07/16 09:21:26;;;;;;;6.32;5.30;;;;;;;;;;5095276;28;20063;-59
2021/07/16 09:23:52;;;;;;;5.22;4.70;;;;;;;;;;5097841;28;20434;-59
2021/07/16 09:26:27;;;;;;;5.28;4.78;;;;;;;;;;5097427;28;20028;-59
2021/07/16 09:28:53;;;;;;;6.68;4.10;;;;;;;;;;5097380;28;20032;-59
2021/07/16 09:31:22;;;;;;;4.13;3.42;;;;;;;;;;5097512;28;20076;-59
2021/07/16 09:33:51;;;;;;;5.07;3.90;;;;;;;;;;5097286;28;20038;-59
2021/07/16 09:36:30;;;;;;;4.70;4.03;;;;;;;;;;5097203;28;20035;-59
2021/07/16 09:39:18;;;;;;;4.82;4.20;;;;;;;;;;5097296;28;20048;-59
2021/07/16 09:41:51;;;;;;;4.68;3.70;;;;;;;;;;5097657;28;20471;-59
2021/07/16 09:44:31;;;;;;;5.60;4.35;;;;;;;;;;5098071;28;20024;-59
2021/07/16 09:47:06;;;;;;;6.15;4.88;;;;;;;;;;5097254;28;20418;-59
2021/07/16 09:49:32;;;;;;;4.70;4.25;;;;;;;;;;5097299;28;20035;-59
2021/07/16 09:52:06;;;;;;;4.75;4.32;;;;;;;;;;5097128;28;20102;-59
2021/07/16 09:54:32;;;;;;;5.50;4.88;;;;;;;;;;5097529;28;20105;-59
2021/07/16 09:57:01;;;;;;;4.85;4.22;;;;;;;;;;5096915;28;20114;-59
2021/07/16 09:59:30;;;;;;;4.93;4.15;;;;;;;;;;5095976;28;20417;-59
2021/07/16 10:01:56;;;;;;;4.43;3.63;;;;;;;;;;5096985;28;20030;-59
2021/07/16 10:04:27;;;;;;;6.35;4.07;;;;;;;;;;5097031;28;20028;-59
2021/07/16 10:06:54;;;;;;;7.53;4.60;;;;;;;;;;5096937;28;20035;-59
2021/07/16 10:09:22;;;;;;;4.93;3.30;;;;;;;;;;5096498;28;20466;-59
2021/07/16 10:11:48;;;;;;;6.00;4.43;;;;;;;;;;5097063;28;20048;-59
2021/07/16 10:14:15;;;;;;;4.63;4.10;;;;;;;;;;5097128;28;20024;-59
2021/07/16 10:16:45;;;;;;;5.30;3.80;;;;;;;;;;5096946;28;20111;-59
2021/07/16 10:19:12;;;;;;;4.25;2.70;;;;;;;;;;5096700;28;20024;-59
2021/07/16 10:21:38;;;;;;;4.90;3.53;;;;;;;;;;5096790;28;20023;-59
2021/07/16 10:24:04;;;;;;;4.32;3.10;;;;;;;;;;5095442;28;20024;-59
2021/07/16 10:26:31;;;;;;;3.67;3.00;;;;;;;;;;5096769;28;20149;-59
2021/07/16 10:28:57;;;;;;;3.05;2.65;;;;;;;;;;5097052;28;20032;-59
2021/07/16 10:31:29;;;;;;;3.03;2.30;;;;;;;;;;5096778;28;20157;-59
2021/07/16 10:33:56;;;;;;;6.95;3.10;;;;;;;;;;5094628;28;20028;-59
2021/07/16 10:36:40;;;;;;;4.22;2.65;;;;;;;;;;5096405;28;20028;-59
2021/07/16 10:39:28;;;;;;;3.97;2.65;;;;;;;;;;5096643;28;20032;-59
2021/07/16 10:41:54;;;;;;;3.30;2.40;;;;;;;;;;5095775;28;20465;-59
2021/07/16 10:44:47;;;;;;;3.10;2.40;;;;;;;;;;5096555;28;20028;-59
2021/07/16 10:47:31;;;;;;;2.50;1.83;;;;;;;;;;5096254;28;20047;-59
2021/07/16 10:49:57;;;;;;;2.30;1.45;;;;;;;;;;5095716;28;20060;-59
2021/07/16 10:52:41;;;;;;;2.45;1.63;;;;;;;;;;5096077;28;20454;-59
2021/07/16 10:55:07;;;;;;;2.83;1.95;;;;;;;;;;5096043;28;20030;-59
2021/07/16 10:57:44;;;;;;;1.90;1.23;;;;;;;;;;5096189;28;20035;-59
2021/07/16 11:00:13;;;;;;;2.72;2.00;;;;;;;;;;5095940;28;20057;-59
2021/07/16 11:02:46;;;;;;;2.42;1.65;;;;;;;;;;5095923;28;20031;-59
2021/07/16 11:05:31;;;;;;;3.05;1.67;;;;;;;;;;5096182;28;20343;-59
2021/07/16 11:07:56;;;;;;;3.10;2.03;;;;;;;;;;5095677;28;20477;-59
2021/07/16 11:10:41;;;;;;;2.80;1.95;;;;;;;;;;5096239;28;20072;-59
2021/07/16 11:13:25;;;;;;;3.08;2.05;;;;;;;;;;5095618;28;20024;-59
2021/07/16 11:15:52;;;;;;;2.55;1.60;;;;;;;;;;5095327;28;20063;-59
2021/07/16 11:18:28;;;;;;;2.70;1.85;;;;;;;;;;5095561;28;20396;-59
2021/07/16 11:20:54;;;;;;;2.70;1.70;;;;;;;;;;5096009;28;20027;-59
2021/07/16 11:23:21;;;;;;;3.10;1.63;;;;;;;;;;5095514;28;20361;-59
2021/07/16 11:25:47;;;;;;;2.70;1.65;;;;;;;;;;5095924;28;20024;-59
2021/07/16 11:28:13;;;;;;;2.28;1.60;;;;;;;;;;5095607;28;20051;-59
2021/07/16 11:30:42;;;;;;;2.50;1.80;;;;;;;;;;5095698;28;20036;-59
2021/07/16 11:33:08;;;;;;;2.63;1.85;;;;;;;;;;5095524;28;20020;-59
2021/07/16 11:35:36;;;;;;;2.70;1.83;;;;;;;;;;5095498;28;20103;-59
2021/07/16 11:38:07;;;;;;;2.67;1.80;;;;;;;;;;5095126;28;20490;-59
2021/07/16 11:40:34;;;;;;;2.38;1.85;;;;;;;;;;5095098;28;20374;-59
2021/07/16 11:43:00;;;;;;;2.38;1.73;;;;;;;;;;5095498;28;20104;-59
2021/07/16 11:45:31;;;;;;;3.65;2.00;;;;;;;;;;5093555;28;20066;-59
2021/07/16 11:47:58;;;;;;;2.33;1.50;;;;;;;;;;5095729;28;20028;-59
2021/07/16 11:50:24;;;;;;;2.63;1.70;;;;;;;;;;5094804;28;20109;-59
2021/07/16 11:52:52;;;;;;;2.67;1.73;;;;;;;;;;5095291;28;20059;-59
2021/07/16 11:55:23;;;;;;;2.35;1.50;;;;;;;;;;5095113;28;20024;-59
2021/07/16 11:57:50;;;;;;;1.88;1.23;;;;;;;;;;5095032;28;20023;-59
2021/07/16 12:00:17;;;;;;;2.53;1.02;;;;;;;;;;5094746;28;20355;-59
2021/07/16 12:02:43;;;;;;;1.92;1.10;;;;;;;;;;5094610;28;20115;-59
2021/07/16 12:05:11;;;;;;;1.98;1.30;;;;;;;;;;5094647;28;20021;-59
2021/07/16 12:07:38;;;;;;;2.20;0.88;;;;;;;;;;5094541;28;20189;-59
2021/07/16 12:10:08;;;;;;;2.10;1.40;;;;;;;;;;5094952;28;20035;-59
2021/07/16 12:12:35;;;;;;;2.58;1.15;;;;;;;;;;5094501;28;20492;-59
2021/07/16 12:15:07;;;;;;;3.05;1.48;;;;;;;;;;5076826;28;20039;-59
2021/07/16 12:17:40;;;;;;;2.05;1.30;;;;;;;;;;5094498;28;20044;-59
2021/07/16 12:20:10;;;;;;;1.70;1.00;;;;;;;;;;5094415;28;20484;-59
2021/07/16 12:22:36;;;;;;;;;;;;;;;;;;5095033;28;20027;-59
2021/07/16 12:25:06;;;;;;;1.88;1.15;;;;;;;;;;5093007;28;19904;-59
2021/07/16 12:27:32;;;;;;;1.85;1.10;;;;;;;;;;5094257;28;20020;-59
2021/07/16 12:30:03;;;;;;;1.98;1.30;;;;;;;;;;5094431;28;20116;-59
2021/07/16 12:32:35;;;;;;;1.92;1.23;;;;;;;;;;5092930;28;20157;-59
2021/07/16 12:35:14;;;;;;;2.22;1.58;;;;;;;;;;5094659;28;20115;-59
2021/07/16 12:37:42;;;;;;;10.85;1.65;;;;;;;;;;5094427;28;20034;-59
2021/07/16 12:40:08;;;;;;;2.92;1.73;;;;;;;;;;5094060;28;20035;-59
2021/07/16 12:42:37;;;;;;;1.98;1.13;;;;;;;;;;5094096;28;20446;-59
2021/07/16 12:45:08;;;;;;;2.10;1.43;;;;;;;;;;5094049;28;20042;-59
2021/07/16 12:47:34;;;;;;;;;;;;;;;;;;5094396;28;20024;-59
2021/07/16 12:50:06;;;;;;;2.45;1.60;;;;;;;;;;5093824;28;19981;-59
2021/07/16 12:52:32;;;;;;;3.67;1.70;;;;;;;;;;5094487;28;20019;-59
2021/07/16 12:55:15;;;;;;;2.58;1.55;;;;;;;;;;5092422;28;20362;-59
2021/07/16 12:57:42;;;;;;;3.35;1.77;;;;;;;;;;5093935;28;20059;-59
2021/07/16 13:00:19;;;;;;;2.42;1.60;;;;;;;;;;5093863;28;20032;-59
2021/07/16 13:02:47;;;;;;;2.58;1.55;;;;;;;;;;5093921;28;20016;-59
2021/07/16 13:05:13;;;;;;;2.67;1.73;;;;;;;;;;5093889;28;20342;-59
2021/07/16 13:07:39;;;;;;;2.53;1.52;;;;;;;;;;5093856;28;20523;-59
2021/07/16 13:10:22;;;;;;;2.33;1.55;;;;;;;;;;5093672;28;20029;-59
2021/07/16 13:12:48;;;;;;;2.50;1.48;;;;;;;;;;5093782;28;20040;-59
2021/07/16 13:15:14;;;;;;;1.45;1.15;;;;;;;;;;5094061;28;20021;-59
2021/07/16 13:17:40;;;;;;;2.03;1.30;;;;;;;;;;5093705;28;20111;-59
2021/07/16 13:20:16;;;;;;;3.20;1.50;;;;;;;;;;5092956;28;20074;-59
2021/07/16 13:22:43;;;;;;;2.53;1.60;;;;;;;;;;5094375;28;20028;-59
2021/07/16 13:25:11;;;;;;;2.78;1.80;;;;;;;;;;5093670;28;20028;-59
2021/07/16 13:27:38;;;;;;;2.60;1.45;;;;;;;;;;5093486;28;20024;-59
2021/07/16 13:30:05;;;;;;;4.25;1.88;;;;;;;;;;5094013;28;20042;-59
2021/07/16 13:32:31;;;;;;;4.10;2.10;;;;;;;;;;5093987;28;20105;-59
2021/07/16 13:34:57;;;;;;;2.15;1.30;;;;;;;;;;5093531;28;20020;-59
2021/07/16 13:37:26;;;;;;;1.83;1.10;;;;;;;;;;5093518;28;20027;-59
2021/07/16 13:39:52;;;;;;;2.65;1.40;;;;;;;;;;5093452;28;20073;-59
2021/07/16 13:42:18;;;;;;;3.30;1.60;;;;;;;;;;5093863;28;20028;-59
2021/07/16 13:44:44;;;;;;;1.92;1.30;;;;;;;;;;5093443;28;20020;-59
2021/07/16 13:47:10;;;;;;;3.78;1.25;;;;;;;;;;5093384;28;20020;-59
2021/07/16 13:49:36;;;;;;;2.15;1.48;;;;;;;;;;5094419;28;20059;-59
2021/07/16 13:52:02;;;;;;;2.10;1.15;;;;;;;;;;5093801;28;20362;-59
2021/07/16 13:54:28;;;;;;;2.20;1.30;;;;;;;;;;5093271;28;20469;-59
2021/07/16 13:56:54;;;;;;;3.22;1.45;;;;;;;;;;5093590;28;20020;-59
2021/07/16 13:59:21;;;;;;;1.77;1.02;;;;;;;;;;5093202;28;20125;-59
2021/07/16 14:01:47;;;;;;;1.83;1.17;;;;;;;;;;5093253;28;20020;-59
2021/07/16 14:04:13;;;;;;;1.95;1.38;;;;;;;;;;5093129;28;20028;-59
2021/07/16 14:06:39;;;;;;;2.33;1.40;;;;;;;;;;5092881;28;20020;-59
2021/07/16 14:09:05;;;;;;;2.95;1.38;;;;;;;;;;5096673;28;20024;-59
2021/07/16 14:11:31;;;;;;;2.50;1.42;;;;;;;;;;5096287;28;20040;-59
2021/07/16 14:13:57;;;;;;;1.83;1.17;;;;;;;;;;5095678;28;20027;-59
2021/07/16 14:16:23;;;;;;;2.67;1.48;;;;;;;;;;5094360;28;20031;-59
2021/07/16 14:18:49;;;;;;;3.78;1.88;;;;;;;;;;5095474;28;20035;-59
2021/07/16 14:21:15;;;;;;;2.47;1.02;;;;;;;;;;5095557;28;20103;-59
2021/07/16 14:23:41;;;;;;;1.73;1.00;;;;;;;;;;5095274;28;20020;-59
2021/07/16 14:26:07;;;;;;;2.03;1.20;;;;;;;;;;5094127;28;20021;-59
2021/07/16 14:28:34;;;;;;;1.70;0.88;;;;;;;;;;5095294;28;20020;-59
2021/07/16 14:31:00;;;;;;;1.65;1.05;;;;;;;;;;5095784;28;20020;-60
2021/07/16 14:33:26;;;;;;;2.55;1.42;;;;;;;;;;5095301;28;20027;-59
2021/07/16 14:35:52;;;;;;;1.67;0.90;;;;;;;;;;5095381;28;20357;-59
2021/07/16 14:38:18;;;;;;;3.25;1.25;;;;;;;;;;5095292;28;20024;-59
2021/07/16 14:40:44;;;;;;;1.48;0.80;;;;;;;;;;5095818;28;20024;-60
2021/07/16 14:43:10;;;;;;;1.30;0.70;;;;;;;;;;5096024;28;20118;-60